Time;durP1;ratioP1;P1;durP2;ratioP2;P2;SDS_P1;SDS_P2;PMS_P1;PMS_P2;Temp;Humidity;BMP_temperature;BMP_pressure;BME280_temperature;BME280_humidity;BME280_pressure;Samples;Min_cycle;Max_cycle;Signal;HPM_P1;HPM_P2
2020/12/03 00:00:38;;;;;;;28.70;12.80;;;1.20;99.90;;;;;;5093454;28;20477;-67
2020/12/03 00:03:16;;;;;;;28.83;13.10;;;1.20;99.90;;;;;;5093120;28;20990;-68
2020/12/03 00:05:43;;;;;;;29.93;13.90;;;1.20;99.90;;;;;;5093188;28;20802;-68
2020/12/03 00:08:11;;;;;;;27.57;13.73;;;1.20;99.90;;;;;;5093362;28;20444;-67
2020/12/03 00:10:37;;;;;;;27.03;13.77;;;1.20;99.90;;;;;;5093004;28;20464;-68
2020/12/03 00:13:12;;;;;;;32.13;14.47;;;1.20;99.90;;;;;;5093387;28;20841;-68
2020/12/03 00:15:38;;;;;;;25.97;13.37;;;1.20;99.90;;;;;;5093439;28;20431;-69
2020/12/03 00:18:07;;;;;;;27.80;13.77;;;1.20;99.90;;;;;;5093376;28;20435;-70
2020/12/03 00:20:34;;;;;;;31.07;13.10;;;1.20;99.90;;;;;;5093264;28;20459;-69
2020/12/03 00:23:01;;;;;;;27.67;13.50;;;1.30;99.90;;;;;;5094028;28;20487;-68
2020/12/03 00:25:27;;;;;;;30.53;13.33;;;1.20;99.90;;;;;;5092932;28;21020;-68
2020/12/03 00:27:56;;;;;;;26.47;12.80;;;1.30;99.90;;;;;;5093284;28;20418;-68
2020/12/03 00:30:23;;;;;;;32.00;14.97;;;1.20;99.90;;;;;;5093175;28;20460;-68
2020/12/03 00:32:50;;;;;;;33.13;15.83;;;1.30;99.90;;;;;;5093119;28;20497;-68
2020/12/03 00:35:19;;;;;;;30.97;13.80;;;1.30;99.90;;;;;;5092679;28;20474;-68
2020/12/03 00:37:46;;;;;;;29.17;12.70;;;1.40;99.90;;;;;;5093142;28;20435;-69
2020/12/03 00:40:12;;;;;;;34.97;15.50;;;1.30;99.90;;;;;;5092746;28;20961;-68
2020/12/03 00:42:38;;;;;;;30.80;15.43;;;1.40;99.90;;;;;;5093611;28;20487;-69
2020/12/03 00:45:07;;;;;;;29.33;14.77;;;1.40;99.90;;;;;;5093728;28;20447;-70
2020/12/03 00:47:34;;;;;;;25.83;13.60;;;1.40;99.90;;;;;;5097054;28;20440;-69
2020/12/03 00:50:00;;;;;;;29.83;14.07;;;1.40;99.90;;;;;;5096580;28;21036;-69
2020/12/03 00:52:27;;;;;;;32.03;14.90;;;1.40;99.90;;;;;;5096553;28;20493;-69
2020/12/03 00:54:53;;;;;;;31.20;15.50;;;1.40;99.90;;;;;;5096811;28;20492;-69
2020/12/03 00:57:19;;;;;;;36.63;14.80;;;1.40;99.90;;;;;;5096803;28;20410;-67
2020/12/03 00:59:45;;;;;;;27.93;13.83;;;1.30;99.90;;;;;;5097253;28;20460;-69
2020/12/03 01:02:14;;;;;;;33.83;15.50;;;1.30;99.90;;;;;;5096650;28;20527;-68
2020/12/03 01:04:40;;;;;;;29.80;14.40;;;1.40;99.90;;;;;;5096645;28;20470;-67
2020/12/03 01:07:08;;;;;;;39.47;15.93;;;1.30;99.90;;;;;;5096574;28;20440;-67
2020/12/03 01:09:36;;;;;;;30.90;15.00;;;1.40;99.90;;;;;;5096491;28;20468;-70
2020/12/03 01:12:05;;;;;;;31.30;14.67;;;1.30;99.90;;;;;;5096464;28;20444;-69
2020/12/03 01:14:34;;;;;;;33.07;14.03;;;1.20;99.90;;;;;;5096472;28;20432;-69
2020/12/03 01:17:02;;;;;;;35.20;15.50;;;1.30;99.90;;;;;;5096408;28;20497;-67
2020/12/03 01:19:28;;;;;;;29.90;14.93;;;1.30;99.90;;;;;;5096329;28;20460;-69
2020/12/03 01:21:54;;;;;;;35.50;16.23;;;1.30;99.90;;;;;;5096265;28;20810;-68
2020/12/03 01:24:21;;;;;;;32.60;14.27;;;1.30;99.90;;;;;;5096245;28;20514;-68
2020/12/03 01:26:48;;;;;;;34.43;14.20;;;1.30;99.90;;;;;;5095899;28;20942;-67
2020/12/03 01:29:16;;;;;;;33.60;13.90;;;1.30;99.90;;;;;;5096096;28;20553;-67
2020/12/03 01:31:42;;;;;;;32.50;13.80;;;1.30;99.90;;;;;;5096227;28;20443;-70
2020/12/03 01:34:08;;;;;;;36.30;15.37;;;1.20;99.90;;;;;;5095732;28;20434;-70
2020/12/03 01:36:34;;;;;;;38.90;15.20;;;1.30;99.90;;;;;;5096002;28;20443;-67
2020/12/03 01:39:01;;;;;;;37.30;14.93;;;1.30;99.90;;;;;;5095894;28;20482;-69
2020/12/03 01:41:28;;;;;;;45.77;15.57;;;1.30;99.90;;;;;;5095923;28;20436;-70
2020/12/03 01:43:55;;;;;;;33.83;15.23;;;1.40;99.90;;;;;;5095799;28;20450;-69
2020/12/03 01:46:21;;;;;;;32.27;14.30;;;1.30;99.90;;;;;;5095869;28;20436;-67
2020/12/03 01:48:49;;;;;;;36.87;14.10;;;1.30;99.90;;;;;;5095680;28;20440;-67
2020/12/03 01:51:23;;;;;;;28.60;14.00;;;1.30;99.90;;;;;;5095695;28;20418;-67
2020/12/03 01:53:51;;;;;;;36.60;14.73;;;1.30;99.90;;;;;;5096277;28;20416;-67
2020/12/03 01:56:41;;;;;;;31.07;13.83;;;1.30;99.90;;;;;;5095145;28;20441;-67
2020/12/03 01:59:09;;;;;;;29.83;13.80;;;1.30;99.90;;;;;;5095583;28;20480;-67
2020/12/03 02:01:36;;;;;;;32.80;14.17;;;1.20;99.90;;;;;;5095542;28;20467;-68
2020/12/03 02:04:03;;;;;;;36.47;14.83;;;1.20;99.90;;;;;;5095447;28;20482;-69
2020/12/03 02:06:32;;;;;;;28.67;14.20;;;1.20;99.90;;;;;;5095136;28;20953;-68
2020/12/03 02:08:59;;;;;;;36.60;14.40;;;1.20;99.90;;;;;;5095291;28;20464;-69
2020/12/03 02:11:25;;;;;;;30.57;14.27;;;1.20;99.90;;;;;;5095418;28;20423;-69
2020/12/03 02:13:53;;;;;;;26.43;13.63;;;1.30;99.90;;;;;;5095363;28;20436;-69
2020/12/03 02:16:21;;;;;;;31.70;13.53;;;1.30;99.90;;;;;;5095285;28;20440;-67
2020/12/03 02:18:48;;;;;;;31.93;13.50;;;1.30;99.90;;;;;;5095153;28;20436;-68
2020/12/03 02:21:15;;;;;;;29.40;13.80;;;1.20;99.90;;;;;;5095194;28;20440;-68
2020/12/03 02:23:42;;;;;;;35.37;14.83;;;1.20;99.90;;;;;;5095040;28;20475;-68
2020/12/03 02:26:08;;;;;;;32.00;15.00;;;1.30;99.90;;;;;;5095051;28;20440;-69
2020/12/03 02:28:35;;;;;;;31.37;13.73;;;1.30;99.90;;;;;;5094976;28;20419;-70
2020/12/03 02:31:01;;;;;;;31.63;14.40;;;1.40;99.90;;;;;;5094943;28;20463;-70
2020/12/03 02:33:27;;;;;;;29.70;14.70;;;1.40;99.90;;;;;;5094602;28;20484;-69
2020/12/03 02:35:53;;;;;;;29.00;13.67;;;1.40;99.90;;;;;;5094930;28;20424;-68
2020/12/03 02:38:21;;;;;;;28.80;14.50;;;1.40;99.90;;;;;;5094901;28;20438;-69
2020/12/03 02:40:47;;;;;;;30.13;14.67;;;1.40;99.90;;;;;;5094777;28;20467;-69
2020/12/03 02:43:14;;;;;;;33.93;13.63;;;1.40;99.90;;;;;;5094354;28;21006;-69
2020/12/03 02:45:40;;;;;;;35.60;14.80;;;1.40;99.90;;;;;;5094678;28;20436;-69
2020/12/03 02:48:07;;;;;;;31.47;15.43;;;1.40;99.90;;;;;;5094668;28;20444;-69
2020/12/03 02:50:33;;;;;;;27.77;15.20;;;1.50;99.90;;;;;;5094485;28;20456;-69
2020/12/03 02:52:59;;;;;;;32.23;15.07;;;1.60;99.90;;;;;;5094537;28;20553;-69
2020/12/03 02:55:26;;;;;;;30.87;13.50;;;1.60;99.90;;;;;;5094291;28;20444;-70
2020/12/03 02:57:52;;;;;;;30.47;13.27;;;1.60;99.90;;;;;;5094499;28;20444;-69
2020/12/03 03:00:19;;;;;;;33.23;15.00;;;1.70;99.90;;;;;;5094373;28;20456;-68
2020/12/03 03:02:45;;;;;;;35.47;14.20;;;1.60;99.90;;;;;;5094254;28;20550;-68
2020/12/03 03:05:11;;;;;;;38.50;15.60;;;1.70;99.90;;;;;;5094031;28;20918;-68
2020/12/03 03:07:37;;;;;;;34.83;15.43;;;1.70;99.90;;;;;;5094150;28;20424;-68
2020/12/03 03:10:04;;;;;;;30.97;14.20;;;1.60;99.90;;;;;;5094161;28;20556;-68
2020/12/03 03:12:31;;;;;;;34.93;14.07;;;1.60;99.90;;;;;;5094149;28;20780;-69
2020/12/03 03:14:57;;;;;;;35.97;15.80;;;1.50;99.90;;;;;;5093855;28;20410;-70
2020/12/03 03:17:23;;;;;;;32.50;15.20;;;1.50;99.90;;;;;;5094151;28;20443;-70
2020/12/03 03:19:49;;;;;;;29.60;14.50;;;1.40;99.90;;;;;;5094000;28;20441;-68
2020/12/03 03:22:15;;;;;;;37.20;13.90;;;1.40;99.90;;;;;;5093632;28;20962;-68
2020/12/03 03:24:42;;;;;;;31.10;13.67;;;1.50;99.90;;;;;;5093953;28;20410;-68
2020/12/03 03:27:08;;;;;;;27.33;13.40;;;1.50;99.90;;;;;;5093928;28;20422;-68
2020/12/03 03:29:35;;;;;;;25.37;13.43;;;1.50;99.90;;;;;;5093573;28;20975;-69
2020/12/03 03:32:01;;;;;;;27.20;12.53;;;1.50;99.90;;;;;;5093904;28;20443;-67
2020/12/03 03:34:28;;;;;;;23.13;11.50;;;1.60;99.90;;;;;;5093461;28;20480;-69
2020/12/03 03:36:54;;;;;;;24.53;12.70;;;1.60;99.90;;;;;;5093801;28;20447;-69
2020/12/03 03:39:24;;;;;;;28.50;12.53;;;1.50;99.90;;;;;;5093651;28;20521;-70
2020/12/03 03:41:53;;;;;;;27.53;11.87;;;1.50;99.90;;;;;;5093771;28;20444;-68
2020/12/03 03:44:20;;;;;;;24.07;13.20;;;1.50;99.90;;;;;;5093298;28;20978;-68
2020/12/03 03:46:47;;;;;;;27.27;12.83;;;1.50;99.90;;;;;;5093649;28;20436;-68
2020/12/03 03:49:14;;;;;;;28.27;12.63;;;1.40;99.90;;;;;;5093287;28;20469;-69
2020/12/03 03:51:40;;;;;;;23.87;12.70;;;1.40;99.90;;;;;;5093602;28;20444;-68
2020/12/03 03:54:06;;;;;;;24.57;12.30;;;1.40;99.90;;;;;;5093550;28;20438;-67
2020/12/03 03:56:33;;;;;;;26.20;12.27;;;1.50;99.90;;;;;;5093222;28;20962;-67
2020/12/03 03:58:59;;;;;;;24.10;12.30;;;1.40;99.90;;;;;;5093490;28;20494;-67
2020/12/03 04:01:25;;;;;;;31.23;12.67;;;1.50;99.90;;;;;;5093546;28;20489;-68
2020/12/03 04:03:52;;;;;;;27.50;12.20;;;1.50;99.90;;;;;;5093417;28;20483;-68
2020/12/03 04:06:19;;;;;;;23.97;12.20;;;1.50;99.90;;;;;;5093531;28;20837;-68
2020/12/03 04:08:45;;;;;;;26.47;12.80;;;1.50;99.90;;;;;;5093377;28;20414;-68
2020/12/03 04:11:11;;;;;;;26.60;12.87;;;1.40;99.90;;;;;;5093440;28;20441;-68
2020/12/03 04:13:37;;;;;;;27.00;12.43;;;1.40;99.90;;;;;;5093079;28;20447;-68
2020/12/03 04:16:03;;;;;;;21.33;10.87;;;1.30;99.90;;;;;;5093401;28;20415;-68
2020/12/03 04:18:30;;;;;;;26.10;12.00;;;1.30;99.90;;;;;;5093348;28;20436;-68
2020/12/03 04:20:59;;;;;;;23.90;11.37;;;1.30;99.90;;;;;;5095406;28;20460;-69
2020/12/03 04:23:26;;;;;;;24.17;12.40;;;1.30;99.90;;;;;;5097368;28;20446;-68
2020/12/03 04:25:52;;;;;;;24.40;11.00;;;1.30;99.90;;;;;;5097430;28;20414;-69
2020/12/03 04:28:19;;;;;;;23.10;11.67;;;1.40;99.90;;;;;;5097351;28;20418;-70
2020/12/03 04:30:45;;;;;;;21.33;12.17;;;1.30;99.90;;;;;;5097309;28;20442;-69
2020/12/03 04:33:12;;;;;;;21.70;11.67;;;1.30;99.90;;;;;;5097276;28;20406;-67
2020/12/03 04:35:39;;;;;;;22.90;11.37;;;1.30;99.90;;;;;;5096784;28;20495;-67
2020/12/03 04:38:07;;;;;;;25.83;12.50;;;1.30;99.90;;;;;;5097221;28;20418;-70
2020/12/03 04:40:35;;;;;;;16.87;10.33;;;1.40;99.90;;;;;;5097062;28;20430;-70
2020/12/03 04:43:06;;;;;;;22.43;11.43;;;1.40;99.90;;;;;;5097008;28;20483;-69
2020/12/03 04:45:40;;;;;;;21.27;10.03;;;1.50;99.90;;;;;;5096804;28;20930;-69
2020/12/03 04:48:20;;;;;;;21.73;11.17;;;1.40;99.90;;;;;;5096714;28;20466;-68
2020/12/03 04:50:54;;;;;;;18.97;10.80;;;1.50;99.90;;;;;;5096919;28;20430;-69
2020/12/03 04:53:35;;;;;;;25.13;11.70;;;1.50;99.90;;;;;;5096592;28;20945;-68
2020/12/03 04:56:05;;;;;;;18.10;10.00;;;1.50;99.90;;;;;;5096873;28;20447;-68
2020/12/03 04:58:44;;;;;;;16.60;9.23;;;1.50;99.90;;;;;;5096781;28;20414;-68
2020/12/03 05:01:21;;;;;;;20.97;10.37;;;1.50;99.90;;;;;;5096468;28;20891;-68
2020/12/03 05:04:03;;;;;;;16.87;9.40;;;1.50;99.90;;;;;;5096608;28;20460;-68
2020/12/03 05:06:38;;;;;;;17.83;9.73;;;1.50;99.90;;;;;;5096346;28;20866;-69
2020/12/03 05:09:12;;;;;;;16.97;10.00;;;1.50;99.90;;;;;;5096534;28;20455;-68
2020/12/03 05:11:41;;;;;;;15.97;9.10;;;1.50;99.90;;;;;;5096250;28;20428;-68
2020/12/03 05:14:21;;;;;;;18.77;10.00;;;1.50;99.90;;;;;;5096543;28;20406;-68
2020/12/03 05:16:56;;;;;;;17.80;9.50;;;1.50;99.90;;;;;;5096242;28;20891;-69
2020/12/03 05:19:35;;;;;;;15.93;9.50;;;1.50;99.90;;;;;;5096344;28;20463;-68
2020/12/03 05:22:12;;;;;;;15.60;10.60;;;1.50;99.90;;;;;;5096054;28;20886;-68
2020/12/03 05:24:39;;;;;;;16.03;8.50;;;1.60;99.90;;;;;;5096222;28;20459;-68
2020/12/03 05:27:06;;;;;;;17.43;9.73;;;1.60;99.90;;;;;;5095997;28;20449;-67
2020/12/03 05:29:32;;;;;;;20.00;10.87;;;1.60;99.90;;;;;;5096152;28;20460;-69
2020/12/03 05:32:00;;;;;;;14.47;8.50;;;1.60;99.90;;;;;;5095821;28;20422;-68
2020/12/03 05:34:29;;;;;;;16.63;9.60;;;1.70;99.90;;;;;;5095787;28;20562;-68
2020/12/03 05:37:00;;;;;;;16.17;8.40;;;1.60;99.90;;;;;;5096089;28;20927;-67
2020/12/03 05:39:29;;;;;;;13.13;8.77;;;1.60;99.90;;;;;;5095943;28;20467;-67
2020/12/03 05:42:00;;;;;;;16.10;8.83;;;1.60;99.90;;;;;;5096017;28;20411;-68
2020/12/03 05:44:38;;;;;;;18.17;9.97;;;1.50;99.90;;;;;;5095917;28;20824;-68
2020/12/03 05:47:07;;;;;;;16.97;9.20;;;1.50;99.90;;;;;;5095935;28;20394;-68
2020/12/03 05:49:40;;;;;;;13.90;9.03;;;1.60;99.90;;;;;;5095757;28;20459;-69
2020/12/03 05:52:18;;;;;;;19.53;10.43;;;1.50;99.90;;;;;;5095859;28;20443;-67
2020/12/03 05:54:56;;;;;;;16.80;9.70;;;1.60;99.90;;;;;;5095737;28;20440;-69
2020/12/03 05:57:27;;;;;;;17.20;10.00;;;1.60;99.90;;;;;;5095442;28;20401;-70
2020/12/03 05:59:53;;;;;;;19.33;10.23;;;1.60;99.90;;;;;;5095628;28;20456;-69
2020/12/03 06:02:30;;;;;;;17.63;10.13;;;1.60;99.90;;;;;;5095604;28;20418;-69
2020/12/03 06:05:11;;;;;;;18.63;10.20;;;1.60;99.90;;;;;;5095536;28;20421;-69
2020/12/03 06:08:12;;;;;;;16.27;8.83;;;1.60;99.90;;;;;;5095519;28;20424;-70
2020/12/03 06:10:53;;;;;;;15.10;8.37;;;1.70;99.90;;;;;;5095367;28;20822;-70
2020/12/03 06:13:42;;;;;;;15.13;8.77;;;1.60;99.90;;;;;;5095387;28;20412;-70
2020/12/03 06:16:20;;;;;;;15.43;9.00;;;1.60;99.90;;;;;;5095330;28;20487;-69
2020/12/03 06:19:02;;;;;;;15.93;8.77;;;1.60;99.90;;;;;;5095203;28;20416;-69
2020/12/03 06:21:58;;;;;;;15.97;9.73;;;1.50;99.90;;;;;;5094962;28;20953;-67
2020/12/03 06:25:01;;;;;;;13.90;9.00;;;1.50;99.90;;;;;;5086127;28;20491;-68
2020/12/03 06:27:53;;;;;;;19.20;9.97;;;1.50;99.90;;;;;;5095136;28;20442;-68
2020/12/03 06:30:25;;;;;;;19.40;9.97;;;1.50;99.90;;;;;;5095011;28;20823;-70
2020/12/03 06:33:28;;;;;;;19.97;10.03;;;1.60;99.90;;;;;;5094905;28;20435;-67
2020/12/03 06:35:57;;;;;;;15.50;9.40;;;1.60;99.90;;;;;;5094910;28;20493;-70
2020/12/03 06:38:33;;;;;;;18.83;10.50;;;1.60;99.90;;;;;;5094578;28;20958;-69
2020/12/03 06:41:12;;;;;;;16.57;9.70;;;1.60;99.90;;;;;;5094416;28;20451;-67
2020/12/03 06:43:46;;;;;;;16.63;9.17;;;1.60;99.90;;;;;;5094219;28;20464;-67
2020/12/03 06:46:41;;;;;;;14.80;9.47;;;1.60;99.90;;;;;;5094732;28;20428;-67
2020/12/03 06:49:45;;;;;;;11.97;7.90;;;1.60;99.90;;;;;;5087440;28;20468;-67
2020/12/03 06:52:39;;;;;;;16.60;9.10;;;1.60;99.90;;;;;;5094625;28;20455;-69
2020/12/03 06:55:23;;;;;;;17.27;9.37;;;1.60;99.90;;;;;;5094550;28;20402;-69
2020/12/03 06:58:13;;;;;;;15.63;9.30;;;1.70;99.90;;;;;;5094519;28;20470;-69
2020/12/03 07:01:31;;;;;;;14.53;9.20;;;1.70;99.90;;;;;;5094407;28;20456;-69
2020/12/03 07:04:38;;;;;;;16.20;8.33;;;1.70;99.90;;;;;;5094347;28;20464;-68
2020/12/03 07:08:08;;;;;;;19.20;9.20;;;1.70;99.90;;;;;;5094369;28;20424;-69
2020/12/03 07:10:57;;;;;;;15.83;8.50;;;1.60;99.90;;;;;;5031669;28;20454;-69
2020/12/03 07:14:09;;;;;;;15.47;8.80;;;1.60;99.90;;;;;;5088475;28;20426;-69
2020/12/03 07:17:06;;;;;;;12.43;7.00;;;1.60;99.90;;;;;;5094166;28;20415;-67
2020/12/03 07:19:49;;;;;;;11.63;6.50;;;1.70;99.90;;;;;;5094059;28;20455;-69
2020/12/03 07:22:20;;;;;;;13.73;6.90;;;1.70;99.90;;;;;;5094124;28;20395;-67
2020/12/03 07:24:48;;;;;;;6.63;5.27;;;1.70;99.90;;;;;;5093986;28;20464;-67
2020/12/03 07:27:58;;;;;;;7.23;4.50;;;1.80;99.90;;;;;;5094488;28;20931;-68
2020/12/03 07:30:36;;;;;;;8.63;4.47;;;1.70;99.90;;;;;;5094418;28;20989;-68
2020/12/03 07:33:05;;;;;;;4.43;3.53;;;1.70;99.90;;;;;;5093893;28;20428;-68
2020/12/03 07:35:38;;;;;;;4.50;3.23;;;1.70;99.90;;;;;;5093389;28;20467;-70
2020/12/03 07:38:12;;;;;;;5.47;3.73;;;1.70;99.90;;;;;;5093777;28;20421;-69
2020/12/03 07:40:38;;;;;;;4.83;3.43;;;1.80;99.90;;;;;;5093339;28;21046;-67
2020/12/03 07:43:18;;;;;;;5.50;4.27;;;1.80;99.90;;;;;;5094201;28;20468;-68
2020/12/03 07:45:47;;;;;;;6.23;4.00;;;1.90;99.90;;;;;;5093620;28;20416;-68
2020/12/03 07:48:18;;;;;;;7.20;4.70;;;1.90;99.90;;;;;;5093422;28;20896;-68
2020/12/03 07:50:51;;;;;;;5.60;4.33;;;1.80;99.90;;;;;;5093229;28;20963;-69
2020/12/03 07:53:23;;;;;;;8.67;5.50;;;1.90;99.90;;;;;;5093626;28;20601;-68
2020/12/03 07:55:50;;;;;;;9.77;6.00;;;2.00;99.90;;;;;;5092694;28;20577;-68
2020/12/03 07:58:33;;;;;;;11.87;6.43;;;2.00;99.90;;;;;;5093201;28;20958;-68
2020/12/03 08:01:00;;;;;;;8.50;6.20;;;2.10;99.90;;;;;;5093171;28;20459;-68
2020/12/03 08:03:47;;;;;;;10.80;6.33;;;2.10;99.90;;;;;;5093356;28;20502;-69
2020/12/03 08:06:24;;;;;;;10.20;6.57;;;2.10;99.90;;;;;;5094348;28;20420;-69
2020/12/03 08:09:11;;;;;;;10.57;6.50;;;2.20;99.90;;;;;;5093391;28;20403;-68
2020/12/03 08:11:40;;;;;;;12.10;6.77;;;2.10;99.90;;;;;;5094062;28;20431;-69
2020/12/03 08:14:32;;;;;;;12.43;7.47;;;2.00;99.90;;;;;;5093426;28;20733;-67
2020/12/03 08:16:59;;;;;;;13.00;7.77;;;2.00;99.90;;;;;;5094209;28;20780;-68
2020/12/03 08:19:28;;;;;;;15.40;8.37;;;2.00;99.90;;;;;;5093337;28;20812;-68
2020/12/03 08:21:55;;;;;;;11.20;7.13;;;2.00;99.90;;;;;;5093337;28;20447;-69
2020/12/03 08:24:25;;;;;;;11.03;7.20;;;2.00;99.90;;;;;;5093213;28;20612;-69
2020/12/03 08:26:56;;;;;;;12.10;7.83;;;2.00;99.90;;;;;;5092920;28;20543;-69
2020/12/03 08:29:34;;;;;;;13.07;7.97;;;2.00;99.90;;;;;;5092855;28;20455;-67
2020/12/03 08:32:00;;;;;;;14.10;8.13;;;2.10;99.90;;;;;;5093244;28;20477;-68
2020/12/03 08:34:32;;;;;;;15.10;8.53;;;2.10;99.90;;;;;;5092786;28;20850;-69
2020/12/03 08:36:59;;;;;;;15.00;8.80;;;2.20;99.90;;;;;;5092837;28;20922;-69
2020/12/03 08:39:25;;;;;;;14.60;9.10;;;2.20;99.90;;;;;;5093154;28;20517;-68
2020/12/03 08:41:53;;;;;;;15.60;8.40;;;2.20;99.90;;;;;;5092779;28;20436;-67
2020/12/03 08:44:19;;;;;;;16.30;8.97;;;2.20;99.90;;;;;;5092901;28;20506;-69
2020/12/03 08:46:46;;;;;;;16.70;9.17;;;2.10;99.90;;;;;;5092976;28;20439;-69
2020/12/03 08:49:20;;;;;;;15.43;9.20;;;2.10;99.90;;;;;;5092915;28;20459;-66
2020/12/03 08:51:48;;;;;;;13.30;8.10;;;2.10;99.90;;;;;;5093528;28;20428;-67
2020/12/03 08:54:15;;;;;;;13.37;8.33;;;2.20;99.90;;;;;;5092933;28;20527;-69
2020/12/03 08:56:44;;;;;;;13.30;7.77;;;2.30;99.90;;;;;;5092582;28;20949;-68
2020/12/03 08:59:13;;;;;;;13.57;8.60;;;2.40;99.90;;;;;;5092816;28;20455;-68
2020/12/03 09:01:41;;;;;;;11.90;7.33;;;2.30;99.90;;;;;;5092926;28;20808;-67
2020/12/03 09:04:09;;;;;;;11.90;7.70;;;2.40;99.90;;;;;;5092767;28;20482;-69
2020/12/03 09:06:45;;;;;;;10.90;6.70;;;2.40;99.90;;;;;;5094017;28;21008;-68
2020/12/03 09:09:15;;;;;;;14.23;7.80;;;2.50;99.90;;;;;;5096490;28;20463;-69
2020/12/03 09:11:42;;;;;;;13.43;6.93;;;2.50;99.90;;;;;;5097353;28;20407;-67
2020/12/03 09:14:08;;;;;;;14.03;7.93;;;2.40;99.90;;;;;;5096488;28;20439;-68
2020/12/03 09:16:35;;;;;;;11.47;7.00;;;2.40;99.90;;;;;;5096464;28;20483;-68
2020/12/03 09:19:02;;;;;;;9.13;6.53;;;2.50;99.90;;;;;;5096296;28;20455;-68
2020/12/03 09:21:30;;;;;;;11.40;7.30;;;2.60;99.90;;;;;;5096351;28;20810;-69
2020/12/03 09:23:57;;;;;;;12.13;7.13;;;2.70;99.90;;;;;;5096237;28;20475;-68
2020/12/03 09:26:30;;;;;;;15.43;8.63;;;2.70;99.90;;;;;;5096287;28;20415;-70
2020/12/03 09:28:57;;;;;;;14.13;8.23;;;2.80;99.90;;;;;;5096149;28;20402;-69
2020/12/03 09:31:25;;;;;;;13.40;6.87;;;2.90;99.90;;;;;;5095872;28;20903;-69
2020/12/03 09:33:52;;;;;;;15.40;8.90;;;2.90;99.90;;;;;;5095810;28;20475;-67
2020/12/03 09:36:19;;;;;;;11.80;7.63;;;3.00;99.90;;;;;;5096094;28;20418;-66
2020/12/03 09:38:48;;;;;;;10.93;7.00;;;3.00;99.90;;;;;;5096003;28;20417;-69
2020/12/03 09:41:15;;;;;;;12.07;7.00;;;3.00;99.90;;;;;;5095984;28;20439;-69
2020/12/03 09:43:46;;;;;;;12.67;8.03;;;3.10;99.90;;;;;;5095903;28;20495;-69
2020/12/03 09:46:17;;;;;;;11.43;7.20;;;3.20;99.90;;;;;;5095919;28;20817;-69
2020/12/03 09:48:46;;;;;;;12.67;7.70;;;3.30;99.90;;;;;;5095885;28;20497;-68
2020/12/03 09:51:12;;;;;;;10.67;6.70;;;3.20;99.90;;;;;;5095506;28;20428;-68
2020/12/03 09:53:38;;;;;;;13.07;7.10;;;3.10;99.90;;;;;;5095471;28;20899;-68
2020/12/03 09:56:04;;;;;;;13.93;8.20;;;3.10;99.90;;;;;;5095385;28;20904;-68
2020/12/03 09:58:31;;;;;;;11.77;7.43;;;3.10;99.90;;;;;;5095643;28;20429;-67
2020/12/03 10:01:06;;;;;;;10.10;6.73;;;3.10;99.90;;;;;;5095535;28;20451;-69
2020/12/03 10:04:11;;;;;;;10.43;7.10;;;3.20;99.90;;;;;;5095134;28;20919;-68
2020/12/03 10:06:46;;;;;;;11.07;5.70;;;3.40;99.90;;;;;;5095604;28;20420;-69
2020/12/03 10:09:43;;;;;;;9.50;6.03;;;3.60;99.90;;;;;;5095452;28;20462;-68
2020/12/03 10:12:33;;;;;;;9.67;6.10;;;3.60;99.90;;;;;;5095152;28;20417;-68
2020/12/03 10:15:18;;;;;;;10.43;6.00;;;3.70;99.90;;;;;;5095433;28;20416;-68
2020/12/03 10:18:07;;;;;;;10.50;5.90;;;3.60;99.90;;;;;;5094427;28;20420;-68
2020/12/03 10:20:36;;;;;;;8.87;5.90;;;3.60;99.90;;;;;;5094854;28;20975;-68
2020/12/03 10:23:37;;;;;;;7.83;5.57;;;3.50;99.90;;;;;;5094867;28;20484;-69
2020/12/03 10:26:35;;;;;;;5.40;4.33;;;3.50;99.90;;;;;;5094877;28;20987;-68
2020/12/03 10:29:41;;;;;;;7.57;5.70;;;3.50;99.90;;;;;;5094635;28;20531;-67
2020/12/03 10:32:10;;;;;;;9.73;5.50;;;3.60;99.90;;;;;;5095058;28;20435;-69
2020/12/03 10:34:39;;;;;;;9.17;4.80;;;3.50;99.90;;;;;;5094570;28;20843;-68
2020/12/03 10:37:12;;;;;;;8.60;5.20;;;3.50;99.90;;;;;;5094920;28;20439;-69
2020/12/03 10:39:47;;;;;;;8.53;5.40;;;3.40;99.90;;;;;;5094475;28;20471;-68
2020/12/03 10:42:14;;;;;;;10.40;6.80;;;3.50;99.90;;;;;;5094507;28;20425;-68
2020/12/03 10:44:46;;;;;;;9.50;4.97;;;3.50;99.90;;;;;;5094636;28;20474;-68
2020/12/03 10:47:14;;;;;;;8.03;5.27;;;3.50;99.90;;;;;;5094648;28;20486;-69
2020/12/03 10:49:43;;;;;;;10.73;6.60;;;3.40;99.90;;;;;;5094574;28;20468;-69
2020/12/03 10:52:10;;;;;;;13.40;6.53;;;3.30;99.90;;;;;;5094304;28;20903;-69
2020/12/03 10:54:37;;;;;;;10.50;6.70;;;3.40;99.90;;;;;;5094631;28;20787;-67
2020/12/03 10:57:12;;;;;;;8.77;6.57;;;3.40;99.90;;;;;;5094248;28;20915;-68
2020/12/03 10:59:41;;;;;;;10.40;6.57;;;3.40;99.90;;;;;;5094086;28;20463;-68
2020/12/03 11:02:22;;;;;;;11.17;6.80;;;3.40;99.90;;;;;;5094456;28;20434;-68
2020/12/03 11:04:50;;;;;;;11.23;6.27;;;3.30;99.90;;;;;;5094260;28;20464;-68
2020/12/03 11:07:17;;;;;;;10.00;5.90;;;3.30;99.90;;;;;;5094325;28;20429;-67
2020/12/03 11:09:51;;;;;;;10.53;6.43;;;3.30;99.90;;;;;;5094267;28;20486;-68
2020/12/03 11:12:18;;;;;;;7.73;5.70;;;3.40;99.90;;;;;;5094314;28;20432;-68
2020/12/03 11:14:45;;;;;;;10.47;6.30;;;3.40;99.90;;;;;;5094227;28;20431;-67
2020/12/03 11:17:52;;;;;;;11.23;6.10;;;3.40;99.90;;;;;;5094211;28;20420;-68
2020/12/03 11:20:21;;;;;;;7.80;5.47;;;3.40;99.90;;;;;;5094063;28;20534;-66
2020/12/03 11:23:06;;;;;;;8.90;6.03;;;3.40;99.90;;;;;;5094003;28;20424;-67
2020/12/03 11:25:33;;;;;;;10.23;5.63;;;3.40;99.90;;;;;;5093961;28;20464;-67
2020/12/03 11:28:10;;;;;;;10.73;5.50;;;3.50;99.90;;;;;;5093982;28;20435;-67
2020/12/03 11:30:37;;;;;;;7.20;4.90;;;3.50;99.90;;;;;;5093728;28;20463;-67
2020/12/03 11:33:03;;;;;;;9.50;5.77;;;3.40;99.90;;;;;;5094102;28;20425;-68
2020/12/03 11:35:32;;;;;;;10.93;5.90;;;3.50;99.90;;;;;;5093889;28;20472;-68
2020/12/03 11:38:00;;;;;;;11.30;6.73;;;3.50;99.90;;;;;;5093948;28;20420;-67
2020/12/03 11:40:33;;;;;;;8.57;5.90;;;3.50;99.90;;;;;;5093817;28;20459;-68
2020/12/03 11:43:21;;;;;;;10.83;6.20;;;3.50;99.90;;;;;;5093557;28;20432;-69
2020/12/03 11:46:14;;;;;;;8.00;5.97;;;3.50;99.90;;;;;;5093459;28;20413;-69
2020/12/03 11:48:41;;;;;;;8.73;5.37;;;3.60;99.90;;;;;;5093599;28;20439;-67
2020/12/03 11:51:08;;;;;;;9.13;6.30;;;3.60;99.90;;;;;;5093628;28;20435;-67
2020/12/03 11:53:34;;;;;;;7.50;5.03;;;3.70;99.90;;;;;;5093638;28;20417;-67
2020/12/03 11:56:00;;;;;;;7.87;5.33;;;3.60;99.90;;;;;;5093859;28;20421;-67
2020/12/03 11:58:29;;;;;;;8.60;6.13;;;3.70;99.90;;;;;;5093718;28;20412;-66
2020/12/03 12:01:09;;;;;;;10.30;6.00;;;3.60;99.90;;;;;;5093572;28;20543;-69
2020/12/03 12:03:36;;;;;;;8.43;5.80;;;3.60;99.90;;;;;;5093485;28;20475;-67
2020/12/03 12:06:06;;;;;;;7.63;5.37;;;3.70;99.90;;;;;;5093584;28;20436;-69
2020/12/03 12:08:37;;;;;;;10.00;5.77;;;3.70;99.90;;;;;;5093118;28;20899;-68
2020/12/03 12:11:10;;;;;;;8.10;5.30;;;3.70;99.90;;;;;;5093204;28;20464;-67
2020/12/03 12:13:36;;;;;;;9.73;6.00;;;3.70;99.90;;;;;;5093233;28;20523;-68
2020/12/03 12:16:02;;;;;;;8.60;5.17;;;3.80;99.90;;;;;;5093385;28;20424;-67
2020/12/03 12:18:28;;;;;;;9.30;5.53;;;3.80;99.90;;;;;;5093389;28;20491;-67
2020/12/03 12:20:54;;;;;;;9.43;6.53;;;3.80;99.90;;;;;;5093060;28;20838;-67
2020/12/03 12:23:21;;;;;;;8.70;6.13;;;3.70;99.90;;;;;;5093309;28;20439;-68
2020/12/03 12:25:48;;;;;;;6.97;5.00;;;3.60;99.90;;;;;;5093413;28;20793;-67
2020/12/03 12:28:14;;;;;;;14.40;5.70;;;3.60;99.90;;;;;;5093315;28;20424;-66
2020/12/03 12:30:40;;;;;;;13.23;6.23;;;3.60;99.90;;;;;;5093251;28;20498;-68
2020/12/03 12:33:07;;;;;;;12.07;5.80;;;3.60;99.90;;;;;;5093367;28;20443;-69
2020/12/03 12:35:33;;;;;;;10.00;5.93;;;3.60;99.90;;;;;;5092876;28;20475;-68
2020/12/03 12:37:59;;;;;;;10.50;6.20;;;3.60;99.90;;;;;;5093178;28;20427;-69
2020/12/03 12:40:25;;;;;;;9.70;5.90;;;3.50;99.90;;;;;;5092841;28;20463;-69
2020/12/03 12:42:52;;;;;;;7.33;5.10;;;3.50;99.90;;;;;;5096715;28;20438;-68
2020/12/03 12:45:19;;;;;;;9.07;5.63;;;3.50;99.90;;;;;;5097189;28;20464;-67
2020/12/03 12:47:47;;;;;;;10.50;6.63;;;3.60;99.90;;;;;;5097168;28;20530;-67
2020/12/03 12:50:13;;;;;;;8.50;5.60;;;3.60;99.90;;;;;;5096950;28;20467;-68
2020/12/03 12:52:40;;;;;;;11.60;6.60;;;3.60;99.90;;;;;;5096990;28;20424;-69
2020/12/03 12:55:06;;;;;;;12.53;6.03;;;3.60;99.90;;;;;;5097075;28;20428;-69
2020/12/03 12:57:32;;;;;;;10.13;5.93;;;3.60;99.90;;;;;;5096969;28;20428;-68
2020/12/03 12:59:59;;;;;;;11.27;6.20;;;3.60;99.90;;;;;;5096794;28;20460;-67
2020/12/03 13:02:25;;;;;;;10.60;6.40;;;3.60;99.90;;;;;;5096800;28;20394;-69
2020/12/03 13:04:51;;;;;;;8.90;5.20;;;3.60;99.90;;;;;;5096770;28;20467;-68
2020/12/03 13:07:18;;;;;;;10.97;6.27;;;3.70;99.90;;;;;;5096791;28;20420;-67